Terminal Aerodrome Forecast
Issued by NWS

Home | Current Version | Previous Version | Graphics & Text | Print | Product List | Glossary On
Versions: 1 2 3 4 5 6 7 8 9 10 11 12 13 14 15 16 17 18 19 20 21 22 23 24 25 26 27 28 29 30 31
000
FTUS43 KLOT 211300 AAA
TAFGYY
TAF AMD
KGYY 211359Z 2114/2212 20009KT P6SM BKN080 BKN150
     FM212000 24011G16KT P6SM VCSH BKN050 OVC100
     FM212200 26011G17KT 5SM SHRA BKN050 OVC100
      TEMPO 2122/2201 3SM TSRA BKN035CB
     FM220300 33010KT P6SM SCT040=

USA.gov is the U.S. government's official web portal to all federal, state and local government web resources and services.